sensor_id;sensor_type;location;lat;lon;timestamp;P1;durP1;ratioP1;P2;durP2;ratioP2
70420;SDS011;57848;51.938;15.520;2023-05-16T00:00:50;8.30;;;4.43;;
70420;SDS011;57848;51.938;15.520;2023-05-16T00:03:17;9.02;;;4.70;;
70420;SDS011;57848;51.938;15.520;2023-05-16T00:05:43;9.47;;;4.43;;
70420;SDS011;57848;51.938;15.520;2023-05-16T00:08:09;7.30;;;4.30;;
70420;SDS011;57848;51.938;15.520;2023-05-16T00:10:35;8.60;;;4.90;;
70420;SDS011;57848;51.938;15.520;2023-05-16T00:13:01;9.20;;;5.47;;
70420;SDS011;57848;51.938;15.520;2023-05-16T00:15:26;8.23;;;4.57;;
70420;SDS011;57848;51.938;15.520;2023-05-16T00:17:53;7.45;;;4.40;;
70420;SDS011;57848;51.938;15.520;2023-05-16T00:20:22;9.73;;;4.50;;
70420;SDS011;57848;51.938;15.520;2023-05-16T00:22:49;8.05;;;4.20;;
70420;SDS011;57848;51.938;15.520;2023-05-16T00:25:15;8.52;;;4.85;;
70420;SDS011;57848;51.938;15.520;2023-05-16T00:27:40;8.93;;;5.10;;
70420;SDS011;57848;51.938;15.520;2023-05-16T00:30:07;8.68;;;4.68;;
70420;SDS011;57848;51.938;15.520;2023-05-16T00:32:33;7.78;;;4.90;;
70420;SDS011;57848;51.938;15.520;2023-05-16T00:35:00;8.70;;;4.50;;
70420;SDS011;57848;51.938;15.520;2023-05-16T00:37:25;10.53;;;4.60;;
70420;SDS011;57848;51.938;15.520;2023-05-16T00:39:52;9.50;;;4.57;;
70420;SDS011;57848;51.938;15.520;2023-05-16T00:42:18;10.20;;;4.50;;
70420;SDS011;57848;51.938;15.520;2023-05-16T00:44:45;8.77;;;4.65;;
70420;SDS011;57848;51.938;15.520;2023-05-16T00:47:10;8.23;;;4.60;;
70420;SDS011;57848;51.938;15.520;2023-05-16T00:49:36;10.00;;;5.20;;
70420;SDS011;57848;51.938;15.520;2023-05-16T00:52:01;9.80;;;5.60;;
70420;SDS011;57848;51.938;15.520;2023-05-16T00:54:27;9.15;;;5.43;;
70420;SDS011;57848;51.938;15.520;2023-05-16T00:56:54;11.77;;;5.60;;
70420;SDS011;57848;51.938;15.520;2023-05-16T00:59:21;9.10;;;5.25;;
70420;SDS011;57848;51.938;15.520;2023-05-16T01:01:47;8.80;;;5.13;;
70420;SDS011;57848;51.938;15.520;2023-05-16T01:04:12;9.77;;;5.70;;
70420;SDS011;57848;51.938;15.520;2023-05-16T01:06:38;9.63;;;5.67;;
70420;SDS011;57848;51.938;15.520;2023-05-16T01:09:04;13.23;;;5.57;;
70420;SDS011;57848;51.938;15.520;2023-05-16T01:17:28;9.23;;;5.87;;
70420;SDS011;57848;51.938;15.520;2023-05-16T01:28:00;9.00;;;5.60;;
70420;SDS011;57848;51.938;15.520;2023-05-16T01:30:31;10.38;;;5.88;;
70420;SDS011;57848;51.938;15.520;2023-05-16T01:32:59;12.38;;;6.57;;
70420;SDS011;57848;51.938;15.520;2023-05-16T01:35:25;9.73;;;5.47;;
70420;SDS011;57848;51.938;15.520;2023-05-16T01:38:15;10.73;;;6.85;;
70420;SDS011;57848;51.938;15.520;2023-05-16T01:43:43;9.57;;;5.90;;
70420;SDS011;57848;51.938;15.520;2023-05-16T01:46:19;9.47;;;5.80;;
70420;SDS011;57848;51.938;15.520;2023-05-16T01:48:50;9.45;;;6.00;;
70420;SDS011;57848;51.938;15.520;2023-05-16T01:51:20;10.45;;;6.82;;
70420;SDS011;57848;51.938;15.520;2023-05-16T01:53:46;11.68;;;6.35;;
70420;SDS011;57848;51.938;15.520;2023-05-16T01:56:14;11.20;;;6.35;;
70420;SDS011;57848;51.938;15.520;2023-05-16T01:58:40;13.83;;;7.80;;
70420;SDS011;57848;51.938;15.520;2023-05-16T02:01:06;13.00;;;7.13;;
70420;SDS011;57848;51.938;15.520;2023-05-16T02:03:32;11.03;;;6.67;;
70420;SDS011;57848;51.938;15.520;2023-05-16T02:05:58;11.45;;;7.00;;
70420;SDS011;57848;51.938;15.520;2023-05-16T02:08:23;10.90;;;6.57;;
70420;SDS011;57848;51.938;15.520;2023-05-16T02:10:50;11.13;;;6.90;;
70420;SDS011;57848;51.938;15.520;2023-05-16T02:13:16;11.82;;;7.28;;
70420;SDS011;57848;51.938;15.520;2023-05-16T02:15:42;13.77;;;7.15;;
70420;SDS011;57848;51.938;15.520;2023-05-16T02:18:07;12.23;;;6.87;;
70420;SDS011;57848;51.938;15.520;2023-05-16T02:20:34;13.80;;;7.28;;
70420;SDS011;57848;51.938;15.520;2023-05-16T02:23:00;13.67;;;7.50;;
70420;SDS011;57848;51.938;15.520;2023-05-16T02:25:27;11.60;;;7.88;;
70420;SDS011;57848;51.938;15.520;2023-05-16T02:27:52;12.82;;;7.95;;
70420;SDS011;57848;51.938;15.520;2023-05-16T02:30:18;12.20;;;7.70;;
70420;SDS011;57848;51.938;15.520;2023-05-16T02:32:43;12.10;;;8.10;;
70420;SDS011;57848;51.938;15.520;2023-05-16T02:35:09;17.47;;;7.67;;
70420;SDS011;57848;51.938;15.520;2023-05-16T02:37:34;13.23;;;7.40;;
70420;SDS011;57848;51.938;15.520;2023-05-16T02:40:00;14.50;;;7.70;;
70420;SDS011;57848;51.938;15.520;2023-05-16T02:42:26;13.00;;;8.67;;
70420;SDS011;57848;51.938;15.520;2023-05-16T02:44:52;12.30;;;8.05;;
70420;SDS011;57848;51.938;15.520;2023-05-16T02:47:17;12.93;;;7.90;;
70420;SDS011;57848;51.938;15.520;2023-05-16T02:49:42;11.43;;;7.63;;
70420;SDS011;57848;51.938;15.520;2023-05-16T02:52:08;13.13;;;8.25;;
70420;SDS011;57848;51.938;15.520;2023-05-16T02:54:34;13.40;;;7.57;;
70420;SDS011;57848;51.938;15.520;2023-05-16T02:56:59;13.00;;;8.13;;
70420;SDS011;57848;51.938;15.520;2023-05-16T02:59:24;14.10;;;8.13;;
70420;SDS011;57848;51.938;15.520;2023-05-16T03:01:50;11.48;;;7.65;;
70420;SDS011;57848;51.938;15.520;2023-05-16T03:04:16;13.00;;;8.10;;
70420;SDS011;57848;51.938;15.520;2023-05-16T03:06:42;13.55;;;7.63;;
70420;SDS011;57848;51.938;15.520;2023-05-16T03:09:07;14.43;;;7.93;;
70420;SDS011;57848;51.938;15.520;2023-05-16T03:11:33;12.40;;;7.55;;
70420;SDS011;57848;51.938;15.520;2023-05-16T03:13:58;10.83;;;7.10;;
70420;SDS011;57848;51.938;15.520;2023-05-16T03:16:24;13.60;;;8.40;;
70420;SDS011;57848;51.938;15.520;2023-05-16T03:18:50;12.43;;;8.20;;
70420;SDS011;57848;51.938;15.520;2023-05-16T03:21:15;13.77;;;7.73;;
70420;SDS011;57848;51.938;15.520;2023-05-16T03:23:43;11.68;;;7.53;;
70420;SDS011;57848;51.938;15.520;2023-05-16T03:26:08;12.13;;;7.10;;
70420;SDS011;57848;51.938;15.520;2023-05-16T03:28:34;12.32;;;8.15;;
70420;SDS011;57848;51.938;15.520;2023-05-16T03:30:59;15.43;;;8.13;;
70420;SDS011;57848;51.938;15.520;2023-05-16T03:33:25;13.50;;;8.13;;
70420;SDS011;57848;51.938;15.520;2023-05-16T03:35:50;15.07;;;9.63;;
70420;SDS011;57848;51.938;15.520;2023-05-16T03:38:16;13.27;;;8.10;;
70420;SDS011;57848;51.938;15.520;2023-05-16T03:40:42;14.02;;;8.70;;
70420;SDS011;57848;51.938;15.520;2023-05-16T03:43:08;13.80;;;8.98;;
70420;SDS011;57848;51.938;15.520;2023-05-16T03:45:33;16.57;;;8.53;;
70420;SDS011;57848;51.938;15.520;2023-05-16T03:47:58;14.90;;;8.93;;
70420;SDS011;57848;51.938;15.520;2023-05-16T03:50:24;14.23;;;9.50;;
70420;SDS011;57848;51.938;15.520;2023-05-16T03:52:49;12.95;;;8.73;;
70420;SDS011;57848;51.938;15.520;2023-05-16T03:55:17;13.43;;;8.20;;
70420;SDS011;57848;51.938;15.520;2023-05-16T03:57:43;15.95;;;10.85;;
70420;SDS011;57848;51.938;15.520;2023-05-16T04:00:09;14.20;;;8.93;;
70420;SDS011;57848;51.938;15.520;2023-05-16T04:02:39;13.30;;;9.23;;
70420;SDS011;57848;51.938;15.520;2023-05-16T04:05:06;15.33;;;9.30;;
70420;SDS011;57848;51.938;15.520;2023-05-16T04:07:32;15.18;;;8.80;;
70420;SDS011;57848;51.938;15.520;2023-05-16T04:09:58;16.53;;;8.90;;
70420;SDS011;57848;51.938;15.520;2023-05-16T04:12:23;13.90;;;8.35;;
70420;SDS011;57848;51.938;15.520;2023-05-16T04:14:48;15.73;;;8.60;;
70420;SDS011;57848;51.938;15.520;2023-05-16T04:17:14;16.37;;;8.70;;
70420;SDS011;57848;51.938;15.520;2023-05-16T04:19:39;15.13;;;9.23;;
70420;SDS011;57848;51.938;15.520;2023-05-16T04:22:05;16.27;;;9.25;;
70420;SDS011;57848;51.938;15.520;2023-05-16T04:24:30;16.40;;;8.90;;
70420;SDS011;57848;51.938;15.520;2023-05-16T04:26:55;13.87;;;8.80;;
70420;SDS011;57848;51.938;15.520;2023-05-16T04:29:21;16.60;;;9.20;;
70420;SDS011;57848;51.938;15.520;2023-05-16T04:31:47;14.05;;;8.75;;
70420;SDS011;57848;51.938;15.520;2023-05-16T04:34:12;15.07;;;9.07;;
70420;SDS011;57848;51.938;15.520;2023-05-16T04:36:39;13.52;;;8.80;;
70420;SDS011;57848;51.938;15.520;2023-05-16T04:39:05;17.73;;;9.20;;
70420;SDS011;57848;51.938;15.520;2023-05-16T04:41:31;14.85;;;8.85;;
70420;SDS011;57848;51.938;15.520;2023-05-16T04:43:57;13.38;;;8.93;;
70420;SDS011;57848;51.938;15.520;2023-05-16T04:46:23;15.80;;;8.53;;
70420;SDS011;57848;51.938;15.520;2023-05-16T04:48:48;13.43;;;9.30;;
70420;SDS011;57848;51.938;15.520;2023-05-16T04:51:14;17.65;;;9.15;;
70420;SDS011;57848;51.938;15.520;2023-05-16T04:53:39;15.27;;;9.27;;
70420;SDS011;57848;51.938;15.520;2023-05-16T04:56:04;15.00;;;8.97;;
70420;SDS011;57848;51.938;15.520;2023-05-16T04:58:30;14.23;;;9.27;;
70420;SDS011;57848;51.938;15.520;2023-05-16T05:00:56;14.27;;;9.63;;
70420;SDS011;57848;51.938;15.520;2023-05-16T05:03:22;15.05;;;9.05;;
70420;SDS011;57848;51.938;15.520;2023-05-16T05:05:47;15.03;;;9.30;;
70420;SDS011;57848;51.938;15.520;2023-05-16T05:08:13;13.70;;;8.35;;
70420;SDS011;57848;51.938;15.520;2023-05-16T05:10:38;13.13;;;9.03;;
70420;SDS011;57848;51.938;15.520;2023-05-16T05:13:04;15.43;;;8.70;;
70420;SDS011;57848;51.938;15.520;2023-05-16T05:15:29;13.27;;;8.45;;
70420;SDS011;57848;51.938;15.520;2023-05-16T05:17:55;14.83;;;9.00;;
70420;SDS011;57848;51.938;15.520;2023-05-16T05:20:20;14.03;;;9.47;;
70420;SDS011;57848;51.938;15.520;2023-05-16T05:22:46;14.07;;;8.70;;
70420;SDS011;57848;51.938;15.520;2023-05-16T05:25:11;14.57;;;9.57;;
70420;SDS011;57848;51.938;15.520;2023-05-16T05:27:36;14.47;;;8.90;;
70420;SDS011;57848;51.938;15.520;2023-05-16T05:30:02;17.60;;;9.77;;
70420;SDS011;57848;51.938;15.520;2023-05-16T05:32:28;15.13;;;9.68;;
70420;SDS011;57848;51.938;15.520;2023-05-16T05:34:53;14.27;;;9.77;;
70420;SDS011;57848;51.938;15.520;2023-05-16T05:37:19;14.05;;;8.90;;
70420;SDS011;57848;51.938;15.520;2023-05-16T05:39:45;14.70;;;9.87;;
70420;SDS011;57848;51.938;15.520;2023-05-16T05:42:10;16.80;;;10.23;;
70420;SDS011;57848;51.938;15.520;2023-05-16T05:44:36;16.02;;;9.40;;
70420;SDS011;57848;51.938;15.520;2023-05-16T05:47:02;14.03;;;10.20;;
70420;SDS011;57848;51.938;15.520;2023-05-16T05:49:28;15.13;;;10.10;;
70420;SDS011;57848;51.938;15.520;2023-05-16T05:51:53;18.67;;;11.17;;
70420;SDS011;57848;51.938;15.520;2023-05-16T05:54:19;17.75;;;10.50;;
70420;SDS011;57848;51.938;15.520;2023-05-16T05:56:45;20.53;;;11.33;;
70420;SDS011;57848;51.938;15.520;2023-05-16T05:59:10;20.25;;;12.13;;
70420;SDS011;57848;51.938;15.520;2023-05-16T06:01:36;22.50;;;13.17;;
70420;SDS011;57848;51.938;15.520;2023-05-16T06:04:01;20.67;;;14.17;;
70420;SDS011;57848;51.938;15.520;2023-05-16T06:06:27;19.40;;;13.25;;
70420;SDS011;57848;51.938;15.520;2023-05-16T06:08:53;22.57;;;14.23;;
70420;SDS011;57848;51.938;15.520;2023-05-16T06:11:19;20.20;;;13.82;;
70420;SDS011;57848;51.938;15.520;2023-05-16T06:13:45;19.92;;;14.05;;
70420;SDS011;57848;51.938;15.520;2023-05-16T06:16:11;22.27;;;14.33;;
70420;SDS011;57848;51.938;15.520;2023-05-16T06:18:36;25.33;;;14.27;;
70420;SDS011;57848;51.938;15.520;2023-05-16T06:21:02;20.73;;;13.17;;
70420;SDS011;57848;51.938;15.520;2023-05-16T06:23:27;21.77;;;14.53;;
70420;SDS011;57848;51.938;15.520;2023-05-16T06:25:53;22.25;;;14.10;;
70420;SDS011;57848;51.938;15.520;2023-05-16T06:28:18;22.10;;;14.37;;
70420;SDS011;57848;51.938;15.520;2023-05-16T06:30:44;22.43;;;15.37;;
70420;SDS011;57848;51.938;15.520;2023-05-16T06:33:11;23.90;;;15.40;;
70420;SDS011;57848;51.938;15.520;2023-05-16T06:35:36;28.03;;;17.13;;
70420;SDS011;57848;51.938;15.520;2023-05-16T06:38:01;23.40;;;16.53;;
70420;SDS011;57848;51.938;15.520;2023-05-16T06:40:26;25.17;;;15.10;;
70420;SDS011;57848;51.938;15.520;2023-05-16T06:42:52;26.17;;;16.20;;
70420;SDS011;57848;51.938;15.520;2023-05-16T06:45:17;30.37;;;18.40;;
70420;SDS011;57848;51.938;15.520;2023-05-16T06:47:43;26.33;;;17.67;;
70420;SDS011;57848;51.938;15.520;2023-05-16T06:50:08;25.20;;;16.47;;
70420;SDS011;57848;51.938;15.520;2023-05-16T06:52:34;26.85;;;17.20;;
70420;SDS011;57848;51.938;15.520;2023-05-16T06:55:00;30.63;;;21.17;;
70420;SDS011;57848;51.938;15.520;2023-05-16T06:57:25;33.00;;;18.00;;
70420;SDS011;57848;51.938;15.520;2023-05-16T06:59:50;34.20;;;18.60;;
70420;SDS011;57848;51.938;15.520;2023-05-16T07:02:16;29.37;;;18.53;;
70420;SDS011;57848;51.938;15.520;2023-05-16T07:04:41;30.83;;;18.97;;
70420;SDS011;57848;51.938;15.520;2023-05-16T07:07:07;32.17;;;19.20;;
70420;SDS011;57848;51.938;15.520;2023-05-16T07:09:33;28.52;;;16.88;;
70420;SDS011;57848;51.938;15.520;2023-05-16T07:11:58;26.40;;;16.97;;
70420;SDS011;57848;51.938;15.520;2023-05-16T07:14:24;33.93;;;18.47;;
70420;SDS011;57848;51.938;15.520;2023-05-16T07:16:49;30.77;;;18.47;;
70420;SDS011;57848;51.938;15.520;2023-05-16T07:19:14;29.60;;;18.50;;
70420;SDS011;57848;51.938;15.520;2023-05-16T07:21:40;28.63;;;17.83;;
70420;SDS011;57848;51.938;15.520;2023-05-16T07:24:05;27.93;;;19.03;;
70420;SDS011;57848;51.938;15.520;2023-05-16T07:26:31;29.83;;;18.23;;
70420;SDS011;57848;51.938;15.520;2023-05-16T07:28:56;30.37;;;17.53;;
70420;SDS011;57848;51.938;15.520;2023-05-16T07:31:21;31.13;;;19.53;;
70420;SDS011;57848;51.938;15.520;2023-05-16T07:33:48;31.50;;;18.73;;
70420;SDS011;57848;51.938;15.520;2023-05-16T07:36:14;29.25;;;17.88;;
70420;SDS011;57848;51.938;15.520;2023-05-16T07:38:40;29.70;;;18.37;;
70420;SDS011;57848;51.938;15.520;2023-05-16T07:41:06;31.92;;;19.35;;
70420;SDS011;57848;51.938;15.520;2023-05-16T07:43:31;29.73;;;17.87;;
70420;SDS011;57848;51.938;15.520;2023-05-16T07:45:59;28.55;;;18.38;;
70420;SDS011;57848;51.938;15.520;2023-05-16T07:48:25;31.10;;;18.42;;
70420;SDS011;57848;51.938;15.520;2023-05-16T07:50:51;30.20;;;18.37;;
70420;SDS011;57848;51.938;15.520;2023-05-16T07:53:16;26.40;;;17.30;;
70420;SDS011;57848;51.938;15.520;2023-05-16T07:55:41;26.40;;;17.13;;
70420;SDS011;57848;51.938;15.520;2023-05-16T07:58:07;26.30;;;16.58;;
70420;SDS011;57848;51.938;15.520;2023-05-16T08:00:32;26.40;;;16.27;;
70420;SDS011;57848;51.938;15.520;2023-05-16T08:02:58;28.57;;;17.20;;
70420;SDS011;57848;51.938;15.520;2023-05-16T08:05:23;23.87;;;15.13;;
70420;SDS011;57848;51.938;15.520;2023-05-16T08:07:49;25.63;;;15.98;;
70420;SDS011;57848;51.938;15.520;2023-05-16T08:10:14;25.37;;;16.90;;
70420;SDS011;57848;51.938;15.520;2023-05-16T08:12:40;27.70;;;16.30;;
70420;SDS011;57848;51.938;15.520;2023-05-16T08:15:05;27.23;;;17.98;;
70420;SDS011;57848;51.938;15.520;2023-05-16T08:17:31;29.73;;;16.93;;
70420;SDS011;57848;51.938;15.520;2023-05-16T08:19:57;29.67;;;17.90;;
70420;SDS011;57848;51.938;15.520;2023-05-16T08:22:23;24.93;;;15.60;;
70420;SDS011;57848;51.938;15.520;2023-05-16T08:24:49;28.58;;;16.52;;
70420;SDS011;57848;51.938;15.520;2023-05-16T08:27:14;27.90;;;16.07;;
70420;SDS011;57848;51.938;15.520;2023-05-16T08:29:40;29.17;;;16.43;;
70420;SDS011;57848;51.938;15.520;2023-05-16T08:32:07;27.30;;;16.20;;
70420;SDS011;57848;51.938;15.520;2023-05-16T08:34:33;28.88;;;18.80;;
70420;SDS011;57848;51.938;15.520;2023-05-16T08:36:58;26.47;;;16.50;;
70420;SDS011;57848;51.938;15.520;2023-05-16T08:39:24;25.30;;;16.63;;
70420;SDS011;57848;51.938;15.520;2023-05-16T08:41:50;28.53;;;16.73;;
70420;SDS011;57848;51.938;15.520;2023-05-16T08:44:15;27.47;;;17.23;;
70420;SDS011;57848;51.938;15.520;2023-05-16T08:46:54;26.73;;;16.70;;
70420;SDS011;57848;51.938;15.520;2023-05-16T08:49:21;25.08;;;16.35;;
70420;SDS011;57848;51.938;15.520;2023-05-16T08:51:47;27.60;;;17.23;;
70420;SDS011;57848;51.938;15.520;2023-05-16T08:54:15;26.27;;;16.02;;
70420;SDS011;57848;51.938;15.520;2023-05-16T08:56:41;27.90;;;16.48;;
70420;SDS011;57848;51.938;15.520;2023-05-16T08:59:09;25.70;;;15.70;;
70420;SDS011;57848;51.938;15.520;2023-05-16T09:01:35;28.10;;;16.08;;
70420;SDS011;57848;51.938;15.520;2023-05-16T09:04:02;29.40;;;15.63;;
70420;SDS011;57848;51.938;15.520;2023-05-16T09:06:29;27.45;;;17.38;;
70420;SDS011;57848;51.938;15.520;2023-05-16T09:08:55;29.23;;;17.60;;
70420;SDS011;57848;51.938;15.520;2023-05-16T09:11:20;30.03;;;17.70;;
70420;SDS011;57848;51.938;15.520;2023-05-16T09:13:46;28.37;;;17.37;;
70420;SDS011;57848;51.938;15.520;2023-05-16T09:16:16;26.77;;;15.43;;
70420;SDS011;57848;51.938;15.520;2023-05-16T09:18:43;24.98;;;15.55;;
70420;SDS011;57848;51.938;15.520;2023-05-16T09:21:10;22.63;;;13.80;;
70420;SDS011;57848;51.938;15.520;2023-05-16T09:23:36;21.80;;;12.93;;
70420;SDS011;57848;51.938;15.520;2023-05-16T09:26:02;21.17;;;12.67;;
70420;SDS011;57848;51.938;15.520;2023-05-16T09:28:29;20.77;;;12.60;;
70420;SDS011;57848;51.938;15.520;2023-05-16T09:30:55;22.73;;;13.85;;
70420;SDS011;57848;51.938;15.520;2023-05-16T09:33:23;20.37;;;12.07;;
70420;SDS011;57848;51.938;15.520;2023-05-16T09:35:58;27.50;;;13.35;;
70420;SDS011;57848;51.938;15.520;2023-05-16T09:38:25;24.80;;;14.57;;
70420;SDS011;57848;51.938;15.520;2023-05-16T09:40:54;24.98;;;14.68;;
70420;SDS011;57848;51.938;15.520;2023-05-16T09:43:24;24.42;;;14.20;;
70420;SDS011;57848;51.938;15.520;2023-05-16T09:45:50;28.07;;;14.33;;
70420;SDS011;57848;51.938;15.520;2023-05-16T09:48:16;21.00;;;12.70;;
70420;SDS011;57848;51.938;15.520;2023-05-16T09:50:45;23.40;;;13.80;;
70420;SDS011;57848;51.938;15.520;2023-05-16T09:53:15;20.53;;;12.70;;
70420;SDS011;57848;51.938;15.520;2023-05-16T09:55:40;20.30;;;13.10;;
70420;SDS011;57848;51.938;15.520;2023-05-16T09:58:05;21.00;;;11.90;;
70420;SDS011;57848;51.938;15.520;2023-05-16T10:00:31;21.47;;;12.33;;
70420;SDS011;57848;51.938;15.520;2023-05-16T10:02:58;18.48;;;11.95;;
70420;SDS011;57848;51.938;15.520;2023-05-16T10:05:25;20.73;;;11.75;;
70420;SDS011;57848;51.938;15.520;2023-05-16T10:07:51;19.73;;;11.77;;
70420;SDS011;57848;51.938;15.520;2023-05-16T10:10:20;20.73;;;11.93;;
70420;SDS011;57848;51.938;15.520;2023-05-16T10:12:46;20.50;;;11.35;;
70420;SDS011;57848;51.938;15.520;2023-05-16T10:15:12;21.87;;;12.57;;
70420;SDS011;57848;51.938;15.520;2023-05-16T10:17:38;19.57;;;12.03;;
70420;SDS011;57848;51.938;15.520;2023-05-16T10:20:05;22.58;;;12.75;;
70420;SDS011;57848;51.938;15.520;2023-05-16T10:22:35;20.20;;;12.25;;
70420;SDS011;57848;51.938;15.520;2023-05-16T10:27:47;17.77;;;10.52;;
70420;SDS011;57848;51.938;15.520;2023-05-16T10:30:12;16.17;;;10.33;;
70420;SDS011;57848;51.938;15.520;2023-05-16T10:32:39;18.00;;;11.85;;
70420;SDS011;57848;51.938;15.520;2023-05-16T10:35:06;16.98;;;11.15;;
70420;SDS011;57848;51.938;15.520;2023-05-16T10:37:32;20.02;;;10.68;;
70420;SDS011;57848;51.938;15.520;2023-05-16T10:40:00;18.77;;;11.53;;
70420;SDS011;57848;51.938;15.520;2023-05-16T10:42:30;21.15;;;12.60;;
70420;SDS011;57848;51.938;15.520;2023-05-16T10:45:07;19.90;;;12.13;;
70420;SDS011;57848;51.938;15.520;2023-05-16T10:53:09;20.20;;;12.73;;
70420;SDS011;57848;51.938;15.520;2023-05-16T10:55:38;25.38;;;13.65;;
70420;SDS011;57848;51.938;15.520;2023-05-16T10:58:04;24.02;;;13.73;;
70420;SDS011;57848;51.938;15.520;2023-05-16T11:00:29;22.20;;;12.17;;
70420;SDS011;57848;51.938;15.520;2023-05-16T11:03:03;23.75;;;14.00;;
70420;SDS011;57848;51.938;15.520;2023-05-16T11:05:30;22.10;;;12.53;;
70420;SDS011;57848;51.938;15.520;2023-05-16T11:08:02;26.20;;;12.95;;
70420;SDS011;57848;51.938;15.520;2023-05-16T11:10:29;25.55;;;13.85;;
70420;SDS011;57848;51.938;15.520;2023-05-16T11:12:55;22.23;;;13.70;;
70420;SDS011;57848;51.938;15.520;2023-05-16T11:15:30;24.23;;;15.05;;
70420;SDS011;57848;51.938;15.520;2023-05-16T11:18:06;24.23;;;13.48;;
70420;SDS011;57848;51.938;15.520;2023-05-16T11:20:36;22.93;;;14.33;;
70420;SDS011;57848;51.938;15.520;2023-05-16T11:25:55;24.58;;;13.90;;
70420;SDS011;57848;51.938;15.520;2023-05-16T11:28:25;24.88;;;15.20;;
70420;SDS011;57848;51.938;15.520;2023-05-16T11:30:52;23.10;;;13.07;;
70420;SDS011;57848;51.938;15.520;2023-05-16T11:33:20;23.40;;;14.97;;
70420;SDS011;57848;51.938;15.520;2023-05-16T11:35:59;23.95;;;14.75;;
70420;SDS011;57848;51.938;15.520;2023-05-16T11:38:29;23.35;;;13.38;;
70420;SDS011;57848;51.938;15.520;2023-05-16T11:41:01;22.50;;;13.50;;
70420;SDS011;57848;51.938;15.520;2023-05-16T11:43:37;24.13;;;13.63;;
70420;SDS011;57848;51.938;15.520;2023-05-16T11:46:09;26.23;;;14.93;;
70420;SDS011;57848;51.938;15.520;2023-05-16T11:48:36;25.10;;;13.82;;
70420;SDS011;57848;51.938;15.520;2023-05-16T11:51:01;25.87;;;12.47;;
70420;SDS011;57848;51.938;15.520;2023-05-16T11:53:27;22.52;;;12.93;;
70420;SDS011;57848;51.938;15.520;2023-05-16T11:55:52;22.50;;;12.50;;
70420;SDS011;57848;51.938;15.520;2023-05-16T11:58:18;23.27;;;13.10;;
70420;SDS011;57848;51.938;15.520;2023-05-16T12:00:48;23.10;;;12.30;;
70420;SDS011;57848;51.938;15.520;2023-05-16T12:03:14;24.95;;;13.70;;
70420;SDS011;57848;51.938;15.520;2023-05-16T12:05:48;21.67;;;13.33;;
70420;SDS011;57848;51.938;15.520;2023-05-16T12:08:16;23.20;;;13.32;;
70420;SDS011;57848;51.938;15.520;2023-05-16T12:10:41;20.70;;;12.37;;
70420;SDS011;57848;51.938;15.520;2023-05-16T12:13:06;22.77;;;12.50;;
70420;SDS011;57848;51.938;15.520;2023-05-16T12:15:32;21.65;;;12.43;;
70420;SDS011;57848;51.938;15.520;2023-05-16T12:17:57;23.13;;;11.77;;
70420;SDS011;57848;51.938;15.520;2023-05-16T12:20:23;22.47;;;13.67;;
70420;SDS011;57848;51.938;15.520;2023-05-16T12:22:50;20.30;;;12.52;;
70420;SDS011;57848;51.938;15.520;2023-05-16T12:25:20;22.80;;;12.50;;
70420;SDS011;57848;51.938;15.520;2023-05-16T12:27:56;27.48;;;13.45;;
70420;SDS011;57848;51.938;15.520;2023-05-16T12:30:24;29.52;;;15.45;;
70420;SDS011;57848;51.938;15.520;2023-05-16T12:32:58;26.80;;;14.30;;
70420;SDS011;57848;51.938;15.520;2023-05-16T12:35:24;24.02;;;14.20;;
70420;SDS011;57848;51.938;15.520;2023-05-16T12:37:50;28.17;;;14.88;;
70420;SDS011;57848;51.938;15.520;2023-05-16T12:40:16;30.08;;;15.63;;
70420;SDS011;57848;51.938;15.520;2023-05-16T12:42:42;25.23;;;14.77;;
70420;SDS011;57848;51.938;15.520;2023-05-16T12:45:15;28.58;;;14.93;;
70420;SDS011;57848;51.938;15.520;2023-05-16T12:47:41;24.88;;;14.25;;
70420;SDS011;57848;51.938;15.520;2023-05-16T12:50:13;24.17;;;14.13;;
70420;SDS011;57848;51.938;15.520;2023-05-16T12:52:51;24.70;;;14.75;;
70420;SDS011;57848;51.938;15.520;2023-05-16T12:55:18;26.73;;;15.67;;
70420;SDS011;57848;51.938;15.520;2023-05-16T12:57:45;25.90;;;14.15;;
70420;SDS011;57848;51.938;15.520;2023-05-16T13:00:15;22.58;;;14.00;;
70420;SDS011;57848;51.938;15.520;2023-05-16T13:02:45;22.85;;;13.05;;
70420;SDS011;57848;51.938;15.520;2023-05-16T13:05:12;21.85;;;13.90;;
70420;SDS011;57848;51.938;15.520;2023-05-16T13:07:40;27.70;;;15.23;;
70420;SDS011;57848;51.938;15.520;2023-05-16T13:10:07;23.98;;;15.00;;
70420;SDS011;57848;51.938;15.520;2023-05-16T13:12:36;26.67;;;15.40;;
70420;SDS011;57848;51.938;15.520;2023-05-16T13:15:03;28.23;;;15.02;;
70420;SDS011;57848;51.938;15.520;2023-05-16T13:17:29;22.33;;;14.80;;
70420;SDS011;57848;51.938;15.520;2023-05-16T13:19:55;27.67;;;15.82;;
70420;SDS011;57848;51.938;15.520;2023-05-16T13:22:21;25.13;;;14.13;;
70420;SDS011;57848;51.938;15.520;2023-05-16T13:24:46;28.83;;;14.90;;
70420;SDS011;57848;51.938;15.520;2023-05-16T13:27:14;23.88;;;14.93;;
70420;SDS011;57848;51.938;15.520;2023-05-16T13:29:40;27.27;;;15.73;;
70420;SDS011;57848;51.938;15.520;2023-05-16T13:32:06;25.20;;;14.23;;
70420;SDS011;57848;51.938;15.520;2023-05-16T13:34:31;24.97;;;15.13;;
70420;SDS011;57848;51.938;15.520;2023-05-16T13:36:57;28.85;;;16.20;;
70420;SDS011;57848;51.938;15.520;2023-05-16T13:39:23;28.67;;;15.20;;
70420;SDS011;57848;51.938;15.520;2023-05-16T13:41:48;26.10;;;15.17;;
70420;SDS011;57848;51.938;15.520;2023-05-16T13:44:14;27.23;;;16.17;;
70420;SDS011;57848;51.938;15.520;2023-05-16T13:46:40;26.05;;;15.63;;
70420;SDS011;57848;51.938;15.520;2023-05-16T13:49:05;23.53;;;15.10;;
70420;SDS011;57848;51.938;15.520;2023-05-16T13:51:31;22.10;;;15.07;;
70420;SDS011;57848;51.938;15.520;2023-05-16T13:53:56;23.67;;;14.13;;
70420;SDS011;57848;51.938;15.520;2023-05-16T13:56:22;22.17;;;13.90;;
70420;SDS011;57848;51.938;15.520;2023-05-16T13:58:47;26.20;;;14.33;;
70420;SDS011;57848;51.938;15.520;2023-05-16T14:01:14;23.15;;;13.90;;
70420;SDS011;57848;51.938;15.520;2023-05-16T14:03:39;20.25;;;12.45;;
70420;SDS011;57848;51.938;15.520;2023-05-16T14:06:05;20.33;;;13.33;;
70420;SDS011;57848;51.938;15.520;2023-05-16T14:08:31;22.23;;;13.23;;
70420;SDS011;57848;51.938;15.520;2023-05-16T14:10:56;23.43;;;13.33;;
70420;SDS011;57848;51.938;15.520;2023-05-16T14:13:21;25.47;;;13.37;;
70420;SDS011;57848;51.938;15.520;2023-05-16T14:15:46;24.30;;;13.33;;
70420;SDS011;57848;51.938;15.520;2023-05-16T14:18:12;24.77;;;14.43;;
70420;SDS011;57848;51.938;15.520;2023-05-16T14:20:38;26.23;;;14.87;;
70420;SDS011;57848;51.938;15.520;2023-05-16T14:23:03;28.13;;;14.57;;
70420;SDS011;57848;51.938;15.520;2023-05-16T14:25:29;23.67;;;14.67;;
70420;SDS011;57848;51.938;15.520;2023-05-16T14:27:54;20.70;;;13.77;;
70420;SDS011;57848;51.938;15.520;2023-05-16T14:30:19;25.27;;;13.97;;
70420;SDS011;57848;51.938;15.520;2023-05-16T14:32:45;22.08;;;13.50;;
70420;SDS011;57848;51.938;15.520;2023-05-16T14:35:10;19.77;;;11.77;;
70420;SDS011;57848;51.938;15.520;2023-05-16T14:37:36;19.13;;;13.07;;